sensor_id;sensor_type;location;lat;lon;timestamp;P1;durP1;ratioP1;P2;durP2;ratioP2
5553;SDS011;2800;49.528;8.666;2024-01-10T00:00:17;17.43;;;10.57;;
5553;SDS011;2800;49.528;8.666;2024-01-10T00:02:43;18.63;;;10.80;;
5553;SDS011;2800;49.528;8.666;2024-01-10T00:05:08;24.40;;;10.97;;
5553;SDS011;2800;49.528;8.666;2024-01-10T00:07:34;19.63;;;9.53;;
5553;SDS011;2800;49.528;8.666;2024-01-10T00:10:01;18.60;;;11.45;;
5553;SDS011;2800;49.528;8.666;2024-01-10T00:12:27;20.55;;;11.40;;
5553;SDS011;2800;49.528;8.666;2024-01-10T00:14:58;19.13;;;10.45;;
5553;SDS011;2800;49.528;8.666;2024-01-10T00:17:23;19.97;;;11.90;;
5553;SDS011;2800;49.528;8.666;2024-01-10T00:19:49;15.73;;;7.80;;
5553;SDS011;2800;49.528;8.666;2024-01-10T00:22:14;16.40;;;9.47;;
5553;SDS011;2800;49.528;8.666;2024-01-10T00:24:40;20.30;;;10.33;;
5553;SDS011;2800;49.528;8.666;2024-01-10T00:27:05;14.70;;;7.97;;
5553;SDS011;2800;49.528;8.666;2024-01-10T00:29:31;19.90;;;10.23;;
5553;SDS011;2800;49.528;8.666;2024-01-10T00:31:57;19.60;;;11.23;;
5553;SDS011;2800;49.528;8.666;2024-01-10T00:34:24;19.52;;;8.82;;
5553;SDS011;2800;49.528;8.666;2024-01-10T00:36:50;15.45;;;6.60;;
5553;SDS011;2800;49.528;8.666;2024-01-10T00:39:15;16.97;;;9.00;;
5553;SDS011;2800;49.528;8.666;2024-01-10T00:41:41;19.07;;;8.27;;
5553;SDS011;2800;49.528;8.666;2024-01-10T00:44:06;15.43;;;8.47;;
5553;SDS011;2800;49.528;8.666;2024-01-10T00:46:32;21.60;;;10.63;;
5553;SDS011;2800;49.528;8.666;2024-01-10T00:48:57;18.33;;;9.33;;
5553;SDS011;2800;49.528;8.666;2024-01-10T00:51:23;19.23;;;10.47;;
5553;SDS011;2800;49.528;8.666;2024-01-10T00:53:48;16.00;;;8.43;;
5553;SDS011;2800;49.528;8.666;2024-01-10T00:56:14;15.50;;;8.40;;
5553;SDS011;2800;49.528;8.666;2024-01-10T00:58:39;19.27;;;11.00;;
5553;SDS011;2800;49.528;8.666;2024-01-10T01:01:06;21.23;;;9.98;;
5553;SDS011;2800;49.528;8.666;2024-01-10T01:03:31;21.00;;;10.70;;
5553;SDS011;2800;49.528;8.666;2024-01-10T01:05:57;21.30;;;11.63;;
5553;SDS011;2800;49.528;8.666;2024-01-10T01:08:22;19.27;;;10.53;;
5553;SDS011;2800;49.528;8.666;2024-01-10T01:10:48;15.27;;;4.67;;
5553;SDS011;2800;49.528;8.666;2024-01-10T01:13:14;19.33;;;10.50;;
5553;SDS011;2800;49.528;8.666;2024-01-10T01:15:39;16.83;;;9.20;;
5553;SDS011;2800;49.528;8.666;2024-01-10T01:18:06;21.23;;;10.03;;
5553;SDS011;2800;49.528;8.666;2024-01-10T01:20:32;19.83;;;9.15;;
5553;SDS011;2800;49.528;8.666;2024-01-10T01:22:57;13.10;;;7.60;;
5553;SDS011;2800;49.528;8.666;2024-01-10T01:25:23;20.13;;;8.80;;
5553;SDS011;2800;49.528;8.666;2024-01-10T01:27:48;20.10;;;11.20;;
5553;SDS011;2800;49.528;8.666;2024-01-10T01:30:14;22.87;;;8.90;;
5553;SDS011;2800;49.528;8.666;2024-01-10T01:32:40;22.87;;;11.60;;
5553;SDS011;2800;49.528;8.666;2024-01-10T01:35:05;19.37;;;10.00;;
5553;SDS011;2800;49.528;8.666;2024-01-10T01:37:31;19.33;;;10.47;;
5553;SDS011;2800;49.528;8.666;2024-01-10T01:39:56;19.53;;;11.60;;
5553;SDS011;2800;49.528;8.666;2024-01-10T01:42:22;25.40;;;12.23;;
5553;SDS011;2800;49.528;8.666;2024-01-10T01:44:47;22.83;;;12.10;;
5553;SDS011;2800;49.528;8.666;2024-01-10T01:47:13;26.13;;;12.00;;
5553;SDS011;2800;49.528;8.666;2024-01-10T01:49:39;18.13;;;9.77;;
5553;SDS011;2800;49.528;8.666;2024-01-10T01:52:07;17.38;;;10.23;;
5553;SDS011;2800;49.528;8.666;2024-01-10T01:54:33;19.50;;;9.80;;
5553;SDS011;2800;49.528;8.666;2024-01-10T01:56:58;18.80;;;10.20;;
5553;SDS011;2800;49.528;8.666;2024-01-10T01:59:24;18.40;;;10.50;;
5553;SDS011;2800;49.528;8.666;2024-01-10T02:01:51;17.97;;;8.63;;
5553;SDS011;2800;49.528;8.666;2024-01-10T02:04:19;23.15;;;10.82;;
5553;SDS011;2800;49.528;8.666;2024-01-10T02:06:45;18.20;;;10.47;;
5553;SDS011;2800;49.528;8.666;2024-01-10T02:09:10;22.10;;;11.40;;
5553;SDS011;2800;49.528;8.666;2024-01-10T02:11:36;14.77;;;8.20;;
5553;SDS011;2800;49.528;8.666;2024-01-10T02:14:02;20.87;;;9.07;;
5553;SDS011;2800;49.528;8.666;2024-01-10T02:16:27;22.17;;;10.13;;
5553;SDS011;2800;49.528;8.666;2024-01-10T02:18:53;24.33;;;11.67;;
5553;SDS011;2800;49.528;8.666;2024-01-10T02:21:21;19.27;;;11.33;;
5553;SDS011;2800;49.528;8.666;2024-01-10T02:23:47;26.73;;;12.45;;
5553;SDS011;2800;49.528;8.666;2024-01-10T02:26:13;19.60;;;10.60;;
5553;SDS011;2800;49.528;8.666;2024-01-10T02:28:40;15.57;;;7.65;;
5553;SDS011;2800;49.528;8.666;2024-01-10T02:31:05;21.30;;;11.80;;
5553;SDS011;2800;49.528;8.666;2024-01-10T02:33:32;17.75;;;9.60;;
5553;SDS011;2800;49.528;8.666;2024-01-10T02:35:57;20.17;;;10.50;;
5553;SDS011;2800;49.528;8.666;2024-01-10T02:38:23;17.87;;;9.70;;
5553;SDS011;2800;49.528;8.666;2024-01-10T02:40:48;22.00;;;11.17;;
5553;SDS011;2800;49.528;8.666;2024-01-10T02:43:14;23.50;;;11.90;;
5553;SDS011;2800;49.528;8.666;2024-01-10T02:45:40;20.65;;;11.43;;
5553;SDS011;2800;49.528;8.666;2024-01-10T02:48:06;26.20;;;12.33;;
5553;SDS011;2800;49.528;8.666;2024-01-10T02:50:32;21.17;;;12.10;;
5553;SDS011;2800;49.528;8.666;2024-01-10T02:52:57;21.60;;;12.50;;
5553;SDS011;2800;49.528;8.666;2024-01-10T02:55:23;20.77;;;12.77;;
5553;SDS011;2800;49.528;8.666;2024-01-10T02:57:48;24.60;;;11.43;;
5553;SDS011;2800;49.528;8.666;2024-01-10T03:00:14;22.57;;;12.00;;
5553;SDS011;2800;49.528;8.666;2024-01-10T03:02:39;21.87;;;12.13;;
5553;SDS011;2800;49.528;8.666;2024-01-10T03:05:05;24.00;;;12.80;;
5553;SDS011;2800;49.528;8.666;2024-01-10T03:07:31;23.77;;;13.07;;
5553;SDS011;2800;49.528;8.666;2024-01-10T03:09:56;26.40;;;12.63;;
5553;SDS011;2800;49.528;8.666;2024-01-10T03:12:22;24.20;;;13.60;;
5553;SDS011;2800;49.528;8.666;2024-01-10T03:14:47;23.03;;;13.17;;
5553;SDS011;2800;49.528;8.666;2024-01-10T03:17:13;23.13;;;13.13;;
5553;SDS011;2800;49.528;8.666;2024-01-10T03:19:38;20.33;;;12.40;;
5553;SDS011;2800;49.528;8.666;2024-01-10T03:22:08;23.33;;;12.05;;
5553;SDS011;2800;49.528;8.666;2024-01-10T03:24:36;21.65;;;12.55;;
5553;SDS011;2800;49.528;8.666;2024-01-10T03:27:02;22.17;;;12.53;;
5553;SDS011;2800;49.528;8.666;2024-01-10T03:29:29;24.90;;;13.40;;
5553;SDS011;2800;49.528;8.666;2024-01-10T03:31:54;23.43;;;13.67;;
5553;SDS011;2800;49.528;8.666;2024-01-10T03:34:20;21.73;;;12.90;;
5553;SDS011;2800;49.528;8.666;2024-01-10T03:36:45;23.70;;;13.30;;
5553;SDS011;2800;49.528;8.666;2024-01-10T03:39:10;23.23;;;14.20;;
5553;SDS011;2800;49.528;8.666;2024-01-10T03:41:36;22.87;;;13.50;;
5553;SDS011;2800;49.528;8.666;2024-01-10T03:44:01;25.17;;;14.40;;
5553;SDS011;2800;49.528;8.666;2024-01-10T03:46:27;23.33;;;13.73;;
5553;SDS011;2800;49.528;8.666;2024-01-10T03:48:53;21.63;;;13.73;;
5553;SDS011;2800;49.528;8.666;2024-01-10T03:51:19;22.20;;;13.90;;
5553;SDS011;2800;49.528;8.666;2024-01-10T03:53:44;25.27;;;14.77;;
5553;SDS011;2800;49.528;8.666;2024-01-10T03:56:13;25.55;;;14.65;;
5553;SDS011;2800;49.528;8.666;2024-01-10T03:58:39;27.30;;;15.45;;
5553;SDS011;2800;49.528;8.666;2024-01-10T04:01:05;27.67;;;14.40;;
5553;SDS011;2800;49.528;8.666;2024-01-10T04:03:32;23.95;;;13.85;;
5553;SDS011;2800;49.528;8.666;2024-01-10T04:05:57;23.23;;;13.50;;
5553;SDS011;2800;49.528;8.666;2024-01-10T04:08:23;22.93;;;14.03;;
5553;SDS011;2800;49.528;8.666;2024-01-10T04:10:49;22.40;;;12.93;;
5553;SDS011;2800;49.528;8.666;2024-01-10T04:13:15;20.97;;;13.33;;
5553;SDS011;2800;49.528;8.666;2024-01-10T04:15:40;24.70;;;14.70;;
5553;SDS011;2800;49.528;8.666;2024-01-10T04:18:06;24.20;;;14.27;;
5553;SDS011;2800;49.528;8.666;2024-01-10T04:20:31;27.10;;;14.60;;
5553;SDS011;2800;49.528;8.666;2024-01-10T04:22:57;22.63;;;13.33;;
5553;SDS011;2800;49.528;8.666;2024-01-10T04:25:22;24.00;;;15.03;;
5553;SDS011;2800;49.528;8.666;2024-01-10T04:27:48;20.33;;;13.30;;
5553;SDS011;2800;49.528;8.666;2024-01-10T04:30:15;25.75;;;13.18;;
5553;SDS011;2800;49.528;8.666;2024-01-10T04:32:41;22.20;;;12.50;;
5553;SDS011;2800;49.528;8.666;2024-01-10T04:35:06;24.07;;;12.80;;
5553;SDS011;2800;49.528;8.666;2024-01-10T04:37:32;24.53;;;12.80;;
5553;SDS011;2800;49.528;8.666;2024-01-10T04:39:57;25.30;;;14.83;;
5553;SDS011;2800;49.528;8.666;2024-01-10T04:42:23;26.00;;;14.43;;
5553;SDS011;2800;49.528;8.666;2024-01-10T04:44:48;29.17;;;16.70;;
5553;SDS011;2800;49.528;8.666;2024-01-10T04:47:15;25.47;;;14.70;;
5553;SDS011;2800;49.528;8.666;2024-01-10T04:49:40;28.30;;;17.45;;
5553;SDS011;2800;49.528;8.666;2024-01-10T04:52:06;30.90;;;16.73;;
5553;SDS011;2800;49.528;8.666;2024-01-10T04:54:31;32.90;;;18.70;;
5553;SDS011;2800;49.528;8.666;2024-01-10T04:56:57;30.57;;;18.83;;
5553;SDS011;2800;49.528;8.666;2024-01-10T04:59:23;34.63;;;19.67;;
5553;SDS011;2800;49.528;8.666;2024-01-10T05:01:48;29.70;;;16.30;;
5553;SDS011;2800;49.528;8.666;2024-01-10T05:04:14;27.23;;;16.23;;
5553;SDS011;2800;49.528;8.666;2024-01-10T05:06:39;26.90;;;16.23;;
5553;SDS011;2800;49.528;8.666;2024-01-10T05:09:05;26.87;;;14.87;;
5553;SDS011;2800;49.528;8.666;2024-01-10T05:11:31;25.75;;;13.85;;
5553;SDS011;2800;49.528;8.666;2024-01-10T05:13:57;21.97;;;12.77;;
5553;SDS011;2800;49.528;8.666;2024-01-10T05:16:22;23.00;;;13.43;;
5553;SDS011;2800;49.528;8.666;2024-01-10T05:18:48;22.60;;;14.40;;
5553;SDS011;2800;49.528;8.666;2024-01-10T05:21:13;24.00;;;15.33;;
5553;SDS011;2800;49.528;8.666;2024-01-10T05:23:39;26.10;;;15.80;;
5553;SDS011;2800;49.528;8.666;2024-01-10T05:26:05;25.37;;;15.60;;
5553;SDS011;2800;49.528;8.666;2024-01-10T05:28:31;24.93;;;14.47;;
5553;SDS011;2800;49.528;8.666;2024-01-10T05:30:57;24.83;;;13.73;;
5553;SDS011;2800;49.528;8.666;2024-01-10T05:33:23;28.88;;;13.48;;
5553;SDS011;2800;49.528;8.666;2024-01-10T05:35:48;22.93;;;13.87;;
5553;SDS011;2800;49.528;8.666;2024-01-10T05:38:14;28.30;;;14.73;;
5553;SDS011;2800;49.528;8.666;2024-01-10T05:40:40;27.30;;;15.17;;
5553;SDS011;2800;49.528;8.666;2024-01-10T05:43:05;23.60;;;14.50;;
5553;SDS011;2800;49.528;8.666;2024-01-10T05:45:32;23.80;;;14.25;;
5553;SDS011;2800;49.528;8.666;2024-01-10T05:47:58;26.53;;;15.23;;
5553;SDS011;2800;49.528;8.666;2024-01-10T05:50:24;26.10;;;14.68;;
5553;SDS011;2800;49.528;8.666;2024-01-10T05:52:49;26.17;;;15.27;;
5553;SDS011;2800;49.528;8.666;2024-01-10T05:55:15;26.93;;;14.10;;
5553;SDS011;2800;49.528;8.666;2024-01-10T05:57:40;27.53;;;14.67;;
5553;SDS011;2800;49.528;8.666;2024-01-10T06:00:06;25.30;;;14.40;;
5553;SDS011;2800;49.528;8.666;2024-01-10T06:02:38;26.70;;;13.40;;
5553;SDS011;2800;49.528;8.666;2024-01-10T06:05:06;27.90;;;15.52;;
5553;SDS011;2800;49.528;8.666;2024-01-10T06:07:35;27.80;;;15.18;;
5553;SDS011;2800;49.528;8.666;2024-01-10T06:10:01;30.35;;;17.58;;
5553;SDS011;2800;49.528;8.666;2024-01-10T06:12:27;28.60;;;15.77;;
5553;SDS011;2800;49.528;8.666;2024-01-10T06:14:53;26.37;;;15.40;;
5553;SDS011;2800;49.528;8.666;2024-01-10T06:17:19;25.70;;;14.97;;
5553;SDS011;2800;49.528;8.666;2024-01-10T06:19:44;25.93;;;15.50;;
5553;SDS011;2800;49.528;8.666;2024-01-10T06:22:10;25.80;;;14.80;;
5553;SDS011;2800;49.528;8.666;2024-01-10T06:24:36;29.77;;;15.65;;
5553;SDS011;2800;49.528;8.666;2024-01-10T06:27:02;26.95;;;15.90;;
5553;SDS011;2800;49.528;8.666;2024-01-10T06:29:29;27.90;;;15.25;;
5553;SDS011;2800;49.528;8.666;2024-01-10T06:31:54;28.23;;;16.70;;
5553;SDS011;2800;49.528;8.666;2024-01-10T06:34:21;25.67;;;14.18;;
5553;SDS011;2800;49.528;8.666;2024-01-10T06:36:47;40.10;;;14.37;;
5553;SDS011;2800;49.528;8.666;2024-01-10T06:39:12;24.03;;;14.20;;
5553;SDS011;2800;49.528;8.666;2024-01-10T06:41:38;24.40;;;14.43;;
5553;SDS011;2800;49.528;8.666;2024-01-10T06:44:04;24.92;;;14.45;;
5553;SDS011;2800;49.528;8.666;2024-01-10T06:46:30;26.43;;;14.90;;
5553;SDS011;2800;49.528;8.666;2024-01-10T06:48:56;24.40;;;14.55;;
5553;SDS011;2800;49.528;8.666;2024-01-10T06:51:22;26.07;;;14.50;;
5553;SDS011;2800;49.528;8.666;2024-01-10T06:53:48;27.70;;;15.00;;
5553;SDS011;2800;49.528;8.666;2024-01-10T06:56:13;31.00;;;15.70;;
5553;SDS011;2800;49.528;8.666;2024-01-10T06:58:39;23.47;;;14.70;;
5553;SDS011;2800;49.528;8.666;2024-01-10T07:01:05;24.50;;;15.33;;
5553;SDS011;2800;49.528;8.666;2024-01-10T07:03:38;25.20;;;13.98;;
5553;SDS011;2800;49.528;8.666;2024-01-10T07:06:04;25.95;;;13.95;;
5553;SDS011;2800;49.528;8.666;2024-01-10T07:08:30;28.57;;;15.43;;
5553;SDS011;2800;49.528;8.666;2024-01-10T07:10:55;23.67;;;13.43;;
5553;SDS011;2800;49.528;8.666;2024-01-10T07:13:21;21.83;;;12.98;;
5553;SDS011;2800;49.528;8.666;2024-01-10T07:15:48;31.90;;;15.50;;
5553;SDS011;2800;49.528;8.666;2024-01-10T07:18:15;21.95;;;14.15;;
5553;SDS011;2800;49.528;8.666;2024-01-10T07:20:41;21.43;;;13.60;;
5553;SDS011;2800;49.528;8.666;2024-01-10T07:23:07;21.60;;;13.97;;
5553;SDS011;2800;49.528;8.666;2024-01-10T07:25:32;23.67;;;14.10;;
5553;SDS011;2800;49.528;8.666;2024-01-10T07:27:58;27.55;;;14.90;;
5553;SDS011;2800;49.528;8.666;2024-01-10T07:30:24;25.77;;;15.67;;
5553;SDS011;2800;49.528;8.666;2024-01-10T07:32:50;26.47;;;16.23;;
5553;SDS011;2800;49.528;8.666;2024-01-10T07:35:15;25.73;;;15.80;;
5553;SDS011;2800;49.528;8.666;2024-01-10T07:37:41;28.40;;;17.00;;
5553;SDS011;2800;49.528;8.666;2024-01-10T07:40:08;26.20;;;16.35;;
5553;SDS011;2800;49.528;8.666;2024-01-10T07:42:36;26.70;;;15.20;;
5553;SDS011;2800;49.528;8.666;2024-01-10T07:45:02;22.40;;;14.77;;
5553;SDS011;2800;49.528;8.666;2024-01-10T07:47:33;25.35;;;15.20;;
5553;SDS011;2800;49.528;8.666;2024-01-10T07:50:02;25.20;;;16.17;;
5553;SDS011;2800;49.528;8.666;2024-01-10T07:52:35;27.60;;;14.82;;
5553;SDS011;2800;49.528;8.666;2024-01-10T07:55:01;25.83;;;16.50;;
5553;SDS011;2800;49.528;8.666;2024-01-10T07:57:29;27.08;;;15.98;;
5553;SDS011;2800;49.528;8.666;2024-01-10T07:59:55;23.80;;;15.63;;
5553;SDS011;2800;49.528;8.666;2024-01-10T08:02:21;28.47;;;17.03;;
5553;SDS011;2800;49.528;8.666;2024-01-10T08:04:46;30.27;;;18.17;;
5553;SDS011;2800;49.528;8.666;2024-01-10T08:07:12;28.77;;;17.83;;
5553;SDS011;2800;49.528;8.666;2024-01-10T08:09:38;28.20;;;17.13;;
5553;SDS011;2800;49.528;8.666;2024-01-10T08:12:04;27.00;;;15.60;;
5553;SDS011;2800;49.528;8.666;2024-01-10T08:14:29;26.10;;;17.07;;
5553;SDS011;2800;49.528;8.666;2024-01-10T08:16:55;27.67;;;17.50;;
5553;SDS011;2800;49.528;8.666;2024-01-10T08:19:23;25.63;;;16.10;;
5553;SDS011;2800;49.528;8.666;2024-01-10T08:21:50;23.50;;;15.35;;
5553;SDS011;2800;49.528;8.666;2024-01-10T08:24:16;59.22;;;32.97;;
5553;SDS011;2800;49.528;8.666;2024-01-10T08:26:42;133.67;;;67.80;;
5553;SDS011;2800;49.528;8.666;2024-01-10T08:29:08;68.20;;;37.90;;
5553;SDS011;2800;49.528;8.666;2024-01-10T08:31:33;38.73;;;23.57;;
5553;SDS011;2800;49.528;8.666;2024-01-10T08:33:59;69.00;;;39.70;;
5553;SDS011;2800;49.528;8.666;2024-01-10T08:36:24;66.53;;;41.30;;
5553;SDS011;2800;49.528;8.666;2024-01-10T08:38:50;74.40;;;45.10;;
5553;SDS011;2800;49.528;8.666;2024-01-10T08:41:16;110.88;;;65.32;;
5553;SDS011;2800;49.528;8.666;2024-01-10T08:43:42;96.93;;;55.33;;
5553;SDS011;2800;49.528;8.666;2024-01-10T08:46:08;77.63;;;42.77;;
5553;SDS011;2800;49.528;8.666;2024-01-10T08:48:34;72.07;;;34.75;;
5553;SDS011;2800;49.528;8.666;2024-01-10T08:51:01;394.60;;;195.80;;
5553;SDS011;2800;49.528;8.666;2024-01-10T08:53:27;254.87;;;138.53;;
5553;SDS011;2800;49.528;8.666;2024-01-10T08:55:53;184.60;;;107.63;;
5553;SDS011;2800;49.528;8.666;2024-01-10T08:58:18;106.77;;;63.23;;
5553;SDS011;2800;49.528;8.666;2024-01-10T09:00:44;81.50;;;46.00;;
5553;SDS011;2800;49.528;8.666;2024-01-10T09:03:09;179.23;;;104.30;;
5553;SDS011;2800;49.528;8.666;2024-01-10T09:05:35;124.60;;;70.50;;
5553;SDS011;2800;49.528;8.666;2024-01-10T09:08:00;193.17;;;109.80;;
5553;SDS011;2800;49.528;8.666;2024-01-10T09:10:26;117.50;;;60.63;;
5553;SDS011;2800;49.528;8.666;2024-01-10T09:12:54;96.10;;;59.95;;
5553;SDS011;2800;49.528;8.666;2024-01-10T09:15:20;40.30;;;27.33;;
5553;SDS011;2800;49.528;8.666;2024-01-10T09:17:45;37.30;;;24.33;;
5553;SDS011;2800;49.528;8.666;2024-01-10T09:20:11;36.43;;;23.83;;
5553;SDS011;2800;49.528;8.666;2024-01-10T09:22:38;29.98;;;19.67;;
5553;SDS011;2800;49.528;8.666;2024-01-10T09:25:07;29.15;;;18.25;;
5553;SDS011;2800;49.528;8.666;2024-01-10T09:27:34;31.00;;;18.98;;
5553;SDS011;2800;49.528;8.666;2024-01-10T09:30:00;27.60;;;17.05;;
5553;SDS011;2800;49.528;8.666;2024-01-10T09:32:33;26.02;;;17.55;;
5553;SDS011;2800;49.528;8.666;2024-01-10T09:34:59;30.02;;;18.70;;
5553;SDS011;2800;49.528;8.666;2024-01-10T09:37:25;27.30;;;17.70;;
5553;SDS011;2800;49.528;8.666;2024-01-10T09:39:50;29.73;;;18.33;;
5553;SDS011;2800;49.528;8.666;2024-01-10T09:42:17;31.40;;;20.40;;
5553;SDS011;2800;49.528;8.666;2024-01-10T09:44:44;34.40;;;21.05;;
5553;SDS011;2800;49.528;8.666;2024-01-10T09:47:10;32.42;;;20.02;;
5553;SDS011;2800;49.528;8.666;2024-01-10T09:49:38;30.17;;;18.92;;
5553;SDS011;2800;49.528;8.666;2024-01-10T09:52:04;33.10;;;20.37;;
5553;SDS011;2800;49.528;8.666;2024-01-10T09:54:34;25.55;;;17.13;;
5553;SDS011;2800;49.528;8.666;2024-01-10T09:57:03;30.67;;;17.45;;
5553;SDS011;2800;49.528;8.666;2024-01-10T09:59:28;25.73;;;15.73;;
5553;SDS011;2800;49.528;8.666;2024-01-10T10:01:54;27.53;;;17.50;;
5553;SDS011;2800;49.528;8.666;2024-01-10T10:04:21;25.00;;;17.30;;
5553;SDS011;2800;49.528;8.666;2024-01-10T10:06:57;31.92;;;17.10;;
5553;SDS011;2800;49.528;8.666;2024-01-10T10:09:26;26.92;;;17.55;;
5553;SDS011;2800;49.528;8.666;2024-01-10T10:11:54;25.52;;;17.10;;
5553;SDS011;2800;49.528;8.666;2024-01-10T10:14:19;34.85;;;19.65;;
5553;SDS011;2800;49.528;8.666;2024-01-10T10:16:45;29.90;;;19.10;;
5553;SDS011;2800;49.528;8.666;2024-01-10T10:19:10;31.40;;;18.50;;
5553;SDS011;2800;49.528;8.666;2024-01-10T10:21:39;26.23;;;17.93;;
5553;SDS011;2800;49.528;8.666;2024-01-10T10:24:04;24.53;;;16.40;;
5553;SDS011;2800;49.528;8.666;2024-01-10T10:26:34;27.10;;;17.90;;
5553;SDS011;2800;49.528;8.666;2024-01-10T10:28:59;27.43;;;16.90;;
5553;SDS011;2800;49.528;8.666;2024-01-10T10:31:25;28.53;;;18.00;;
5553;SDS011;2800;49.528;8.666;2024-01-10T10:33:51;34.80;;;18.43;;
5553;SDS011;2800;49.528;8.666;2024-01-10T10:36:18;27.50;;;17.33;;
5553;SDS011;2800;49.528;8.666;2024-01-10T10:38:46;31.87;;;19.90;;
5553;SDS011;2800;49.528;8.666;2024-01-10T10:41:13;27.63;;;16.57;;
5553;SDS011;2800;49.528;8.666;2024-01-10T10:43:39;23.90;;;15.67;;
5553;SDS011;2800;49.528;8.666;2024-01-10T10:46:06;26.63;;;17.20;;
5553;SDS011;2800;49.528;8.666;2024-01-10T10:48:35;27.00;;;17.67;;
5553;SDS011;2800;49.528;8.666;2024-01-10T10:53:53;75.63;;;43.50;;
5553;SDS011;2800;49.528;8.666;2024-01-10T10:56:19;28.47;;;18.43;;
5553;SDS011;2800;49.528;8.666;2024-01-10T10:58:45;31.90;;;19.77;;
5553;SDS011;2800;49.528;8.666;2024-01-10T11:01:12;29.60;;;18.70;;
5553;SDS011;2800;49.528;8.666;2024-01-10T11:03:39;25.70;;;17.63;;
5553;SDS011;2800;49.528;8.666;2024-01-10T11:06:06;28.60;;;18.50;;
5553;SDS011;2800;49.528;8.666;2024-01-10T11:08:36;28.07;;;18.93;;
5553;SDS011;2800;49.528;8.666;2024-01-10T11:11:04;30.17;;;21.60;;
5553;SDS011;2800;49.528;8.666;2024-01-10T11:13:41;25.83;;;18.70;;
5553;SDS011;2800;49.528;8.666;2024-01-10T11:24:21;25.43;;;18.83;;
5553;SDS011;2800;49.528;8.666;2024-01-10T11:26:47;25.33;;;19.33;;
5553;SDS011;2800;49.528;8.666;2024-01-10T11:29:14;24.70;;;16.87;;
5553;SDS011;2800;49.528;8.666;2024-01-10T11:31:40;25.53;;;18.80;;
5553;SDS011;2800;49.528;8.666;2024-01-10T11:34:05;30.00;;;23.80;;
5553;SDS011;2800;49.528;8.666;2024-01-10T11:36:31;31.57;;;23.10;;
5553;SDS011;2800;49.528;8.666;2024-01-10T11:38:58;29.20;;;21.33;;
5553;SDS011;2800;49.528;8.666;2024-01-10T11:41:33;24.03;;;17.33;;
5553;SDS011;2800;49.528;8.666;2024-01-10T11:46:37;33.63;;;21.00;;
5553;SDS011;2800;49.528;8.666;2024-01-10T11:49:17;29.57;;;20.57;;
5553;SDS011;2800;49.528;8.666;2024-01-10T11:51:47;29.80;;;19.10;;
5553;SDS011;2800;49.528;8.666;2024-01-10T11:57:00;29.10;;;21.70;;
5553;SDS011;2800;49.528;8.666;2024-01-10T11:59:26;39.03;;;30.97;;
5553;SDS011;2800;49.528;8.666;2024-01-10T12:01:52;31.53;;;23.30;;
5553;SDS011;2800;49.528;8.666;2024-01-10T12:04:19;29.47;;;19.33;;
5553;SDS011;2800;49.528;8.666;2024-01-10T12:06:46;27.97;;;19.10;;
5553;SDS011;2800;49.528;8.666;2024-01-10T12:09:12;27.43;;;20.13;;
5553;SDS011;2800;49.528;8.666;2024-01-10T12:11:39;26.10;;;20.83;;
5553;SDS011;2800;49.528;8.666;2024-01-10T12:14:06;27.57;;;18.97;;
5553;SDS011;2800;49.528;8.666;2024-01-10T12:16:33;26.70;;;18.87;;
5553;SDS011;2800;49.528;8.666;2024-01-10T12:18:58;28.43;;;17.80;;
5553;SDS011;2800;49.528;8.666;2024-01-10T12:21:24;30.83;;;18.67;;
5553;SDS011;2800;49.528;8.666;2024-01-10T12:23:50;26.00;;;19.20;;
5553;SDS011;2800;49.528;8.666;2024-01-10T12:26:16;28.50;;;20.67;;
5553;SDS011;2800;49.528;8.666;2024-01-10T12:28:42;28.63;;;20.10;;
5553;SDS011;2800;49.528;8.666;2024-01-10T12:31:19;25.40;;;18.00;;
5553;SDS011;2800;49.528;8.666;2024-01-10T12:33:47;25.90;;;18.10;;
5553;SDS011;2800;49.528;8.666;2024-01-10T12:36:13;25.10;;;18.73;;
5553;SDS011;2800;49.528;8.666;2024-01-10T12:38:41;25.37;;;18.23;;
5553;SDS011;2800;49.528;8.666;2024-01-10T12:41:07;32.67;;;20.90;;
5553;SDS011;2800;49.528;8.666;2024-01-10T12:43:34;28.70;;;19.67;;
5553;SDS011;2800;49.528;8.666;2024-01-10T12:48:29;26.80;;;18.90;;
5553;SDS011;2800;49.528;8.666;2024-01-10T12:50:55;26.43;;;19.27;;
5553;SDS011;2800;49.528;8.666;2024-01-10T12:53:21;29.00;;;19.47;;
5553;SDS011;2800;49.528;8.666;2024-01-10T12:55:47;31.80;;;19.97;;
5553;SDS011;2800;49.528;8.666;2024-01-10T12:58:12;27.63;;;19.40;;
5553;SDS011;2800;49.528;8.666;2024-01-10T13:00:38;28.00;;;19.40;;
5553;SDS011;2800;49.528;8.666;2024-01-10T13:03:04;32.23;;;22.87;;
5553;SDS011;2800;49.528;8.666;2024-01-10T13:05:31;30.80;;;20.80;;
5553;SDS011;2800;49.528;8.666;2024-01-10T13:07:56;28.87;;;19.70;;
5553;SDS011;2800;49.528;8.666;2024-01-10T13:10:22;27.33;;;18.97;;
5553;SDS011;2800;49.528;8.666;2024-01-10T13:12:47;28.60;;;19.70;;
5553;SDS011;2800;49.528;8.666;2024-01-10T13:15:13;30.97;;;20.23;;
5553;SDS011;2800;49.528;8.666;2024-01-10T13:17:39;32.03;;;19.17;;
5553;SDS011;2800;49.528;8.666;2024-01-10T13:20:05;26.07;;;17.87;;
5553;SDS011;2800;49.528;8.666;2024-01-10T13:22:31;26.83;;;17.63;;
5553;SDS011;2800;49.528;8.666;2024-01-10T13:24:57;34.40;;;22.00;;
5553;SDS011;2800;49.528;8.666;2024-01-10T13:27:22;31.80;;;20.57;;
5553;SDS011;2800;49.528;8.666;2024-01-10T13:29:48;26.10;;;18.20;;
5553;SDS011;2800;49.528;8.666;2024-01-10T13:32:13;26.17;;;17.83;;
5553;SDS011;2800;49.528;8.666;2024-01-10T13:34:40;25.80;;;17.53;;
5553;SDS011;2800;49.528;8.666;2024-01-10T13:37:06;25.70;;;18.00;;
5553;SDS011;2800;49.528;8.666;2024-01-10T13:39:32;26.77;;;17.60;;
5553;SDS011;2800;49.528;8.666;2024-01-10T13:41:58;26.97;;;18.87;;
5553;SDS011;2800;49.528;8.666;2024-01-10T13:44:23;28.13;;;18.50;;
5553;SDS011;2800;49.528;8.666;2024-01-10T13:46:49;25.27;;;17.47;;
5553;SDS011;2800;49.528;8.666;2024-01-10T13:49:16;27.17;;;18.83;;
5553;SDS011;2800;49.528;8.666;2024-01-10T13:51:41;26.23;;;18.00;;
5553;SDS011;2800;49.528;8.666;2024-01-10T13:54:07;26.47;;;18.43;;
5553;SDS011;2800;49.528;8.666;2024-01-10T13:56:33;27.57;;;18.60;;
5553;SDS011;2800;49.528;8.666;2024-01-10T13:58:59;27.37;;;18.37;;
5553;SDS011;2800;49.528;8.666;2024-01-10T14:01:24;30.43;;;18.40;;
5553;SDS011;2800;49.528;8.666;2024-01-10T14:03:51;28.83;;;17.90;;
5553;SDS011;2800;49.528;8.666;2024-01-10T14:06:16;24.67;;;18.00;;
5553;SDS011;2800;49.528;8.666;2024-01-10T14:08:42;26.30;;;18.90;;
5553;SDS011;2800;49.528;8.666;2024-01-10T14:11:08;30.13;;;18.27;;
5553;SDS011;2800;49.528;8.666;2024-01-10T14:13:34;29.50;;;19.23;;
5553;SDS011;2800;49.528;8.666;2024-01-10T14:16:00;27.57;;;18.77;;
5553;SDS011;2800;49.528;8.666;2024-01-10T14:18:26;29.10;;;20.23;;
5553;SDS011;2800;49.528;8.666;2024-01-10T14:20:51;31.97;;;20.97;;
5553;SDS011;2800;49.528;8.666;2024-01-10T14:23:17;28.97;;;20.43;;
5553;SDS011;2800;49.528;8.666;2024-01-10T14:25:42;26.90;;;20.53;;
5553;SDS011;2800;49.528;8.666;2024-01-10T14:28:08;64.77;;;43.93;;
5553;SDS011;2800;49.528;8.666;2024-01-10T14:30:34;40.13;;;28.57;;
5553;SDS011;2800;49.528;8.666;2024-01-10T14:32:59;29.37;;;21.03;;
5553;SDS011;2800;49.528;8.666;2024-01-10T14:35:25;31.23;;;22.30;;
5553;SDS011;2800;49.528;8.666;2024-01-10T14:37:50;29.77;;;21.13;;
5553;SDS011;2800;49.528;8.666;2024-01-10T14:40:18;28.67;;;20.53;;
5553;SDS011;2800;49.528;8.666;2024-01-10T14:42:43;29.60;;;21.63;;
5553;SDS011;2800;49.528;8.666;2024-01-10T14:45:10;33.17;;;25.07;;
5553;SDS011;2800;49.528;8.666;2024-01-10T14:47:36;30.73;;;21.10;;
5553;SDS011;2800;49.528;8.666;2024-01-10T14:50:01;30.70;;;21.50;;
5553;SDS011;2800;49.528;8.666;2024-01-10T14:52:28;28.50;;;20.63;;
5553;SDS011;2800;49.528;8.666;2024-01-10T14:54:54;36.50;;;25.40;;
5553;SDS011;2800;49.528;8.666;2024-01-10T14:57:20;54.87;;;39.20;;
5553;SDS011;2800;49.528;8.666;2024-01-10T14:59:46;47.07;;;37.47;;